Terminal Aerodrome Forecast
Issued by NWS Tallahassee, FL

Home | Current Version | Previous Version | Text Only | Print | Product List | Glossary On
Versions: 1 2 3 4 5 6 7 8 9 10 11 12 13 14 15
119
FTUS42 KTAE 161720
TAFTLH
TAF
KTLH 161720Z 1618/1718 34008KT P6SM SCT040
     FM161900 35008KT 6SM SHRA VCTS BKN040CB
     FM170000 03010KT P6SM BKN050=

USA.gov is the U.S. government's official web portal to all federal, state and local government web resources and services.